createdAt,value
2015-03-05T00:00:00.420Z,100460
2015-03-05T00:00:09.568Z,100463
2015-03-05T00:00:19.037Z,100451
2015-03-05T00:00:28.221Z,100460
2015-03-05T00:00:37.333Z,100463
2015-03-05T00:00:46.529Z,100466
2015-03-05T00:00:55.697Z,100475
2015-03-05T00:01:04.856Z,100460
2015-03-05T00:01:14.047Z,100463
2015-03-05T00:01:23.212Z,100466
2015-03-05T00:01:32.372Z,100477
2015-03-05T00:01:41.466Z,100463
2015-03-05T00:01:51.286Z,100475
2015-03-05T00:02:00.430Z,100472
2015-03-05T00:02:09.597Z,100463
2015-03-05T00:02:18.761Z,100472
2015-03-05T00:02:27.910Z,100469
2015-03-05T00:02:37.054Z,100475
2015-03-05T00:02:46.221Z,100469
2015-03-05T00:02:55.387Z,100460
2015-03-05T00:03:04.550Z,100466
2015-03-05T00:03:13.700Z,100457
2015-03-05T00:03:22.879Z,100466
2015-03-05T00:03:31.980Z,100475
2015-03-05T00:03:41.147Z,100472
2015-03-05T00:03:50.304Z,100472
2015-03-05T00:03:59.472Z,100475
2015-03-05T00:04:08.644Z,100472
2015-03-05T00:04:17.804Z,100469
2015-03-05T00:04:26.967Z,100463
2015-03-05T00:04:36.062Z,100475
2015-03-05T00:04:45.280Z,100466
2015-03-05T00:04:54.459Z,100469
2015-03-05T00:05:03.626Z,100469
2015-03-05T00:05:12.798Z,100466
2015-03-05T00:05:21.923Z,100477
2015-03-05T00:05:31.139Z,100472
2015-03-05T00:05:40.254Z,100472
2015-03-05T00:05:49.756Z,100472
2015-03-05T00:05:58.903Z,100475
2015-03-05T00:06:08.081Z,100472
2015-03-05T00:06:17.286Z,100480
2015-03-05T00:06:26.470Z,100466
2015-03-05T00:06:35.617Z,100475
2015-03-05T00:06:45.516Z,100472
2015-03-05T00:06:54.556Z,100472
2015-03-05T00:07:03.765Z,100466
2015-03-05T00:07:12.959Z,100466
2015-03-05T00:07:22.104Z,100472
2015-03-05T00:07:31.201Z,100475
2015-03-05T00:07:40.393Z,100477
2015-03-05T00:07:49.573Z,100480
2015-03-05T00:07:58.757Z,100475
2015-03-05T00:08:07.963Z,100483
2015-03-05T00:08:17.150Z,100480
2015-03-05T00:08:26.308Z,100477
2015-03-05T00:08:35.491Z,100480
2015-03-05T00:08:44.662Z,100475
2015-03-05T00:08:53.861Z,100472
2015-03-05T00:09:03.683Z,100477
2015-03-05T00:09:12.834Z,100477
2015-03-05T00:09:22.019Z,100475
2015-03-05T00:09:31.864Z,100472
2015-03-05T00:09:41.027Z,100475
2015-03-05T00:09:50.210Z,100475
2015-03-05T00:09:59.372Z,100472
2015-03-05T00:10:08.560Z,100472
2015-03-05T00:10:17.723Z,100477
2015-03-05T00:10:26.891Z,100472
2015-03-05T00:10:36.071Z,100475
2015-03-05T00:10:45.243Z,100472
2015-03-05T00:10:54.415Z,100477
2015-03-05T00:11:03.614Z,100477
2015-03-05T00:11:12.800Z,100472
2015-03-05T00:11:21.985Z,100475
2015-03-05T00:11:31.180Z,100480
2015-03-05T00:11:40.380Z,100483
2015-03-05T00:11:50.150Z,100480
2015-03-05T00:11:59.353Z,100477
2015-03-05T00:12:08.545Z,100472
2015-03-05T00:12:17.711Z,100469
2015-03-05T00:12:26.871Z,100477
2015-03-05T00:12:36.059Z,100475
2015-03-05T00:12:45.285Z,100486
2015-03-05T00:12:54.413Z,100475
2015-03-05T00:13:03.586Z,100472
2015-03-05T00:13:12.784Z,100475
2015-03-05T00:13:21.953Z,100486
2015-03-05T00:13:31.164Z,100475
2015-03-05T00:13:40.949Z,100475
2015-03-05T00:13:50.158Z,100477
2015-03-05T00:14:00.001Z,100475
2015-03-05T00:14:09.508Z,100480
2015-03-05T00:14:18.704Z,100469
2015-03-05T00:14:27.899Z,100486
2015-03-05T00:14:37.107Z,100469
2015-03-05T00:14:46.203Z,100463
2015-03-05T00:14:55.395Z,100480
2015-03-05T00:15:04.519Z,100486
2015-03-05T00:15:14.795Z,100475
2015-03-05T00:15:23.982Z,100477
2015-03-05T00:15:33.173Z,100469
2015-03-05T00:15:42.333Z,100483
2015-03-05T00:15:51.499Z,100486
2015-03-05T00:16:00.726Z,100480
2015-03-05T00:16:10.547Z,100480
2015-03-05T00:16:19.653Z,100475
2015-03-05T00:16:28.830Z,100475
2015-03-05T00:16:37.907Z,100480
2015-03-05T00:16:47.003Z,100483
2015-03-05T00:16:56.162Z,100480
2015-03-05T00:17:05.328Z,100472
2015-03-05T00:17:14.411Z,100477
2015-03-05T00:17:23.568Z,100483
2015-03-05T00:17:32.737Z,100477
2015-03-05T00:17:41.896Z,100480
2015-03-05T00:17:51.076Z,100477
2015-03-05T00:18:00.158Z,100472
2015-03-05T00:18:09.324Z,100477
2015-03-05T00:18:18.477Z,100472
2015-03-05T00:18:27.570Z,100472
2015-03-05T00:18:36.735Z,100483
2015-03-05T00:18:45.893Z,100477
2015-03-05T00:18:54.924Z,100477
2015-03-05T00:19:04.092Z,100475
2015-03-05T00:19:13.128Z,100480
2015-03-05T00:19:22.257Z,100477
2015-03-05T00:19:31.352Z,100486
2015-03-05T00:19:40.517Z,100477
2015-03-05T00:19:49.689Z,100480
2015-03-05T00:19:58.856Z,100489
2015-03-05T00:20:08.003Z,100483
2015-03-05T00:20:17.179Z,100486
2015-03-05T00:20:26.345Z,100489
2015-03-05T00:20:35.428Z,100489
2015-03-05T00:20:44.594Z,100492
2015-03-05T00:20:53.755Z,100483
2015-03-05T00:21:02.921Z,100486
2015-03-05T00:21:12.724Z,100483
2015-03-05T00:21:21.864Z,100483
2015-03-05T00:21:31.016Z,100492
2015-03-05T00:21:40.192Z,100486
2015-03-05T00:21:49.357Z,100495
2015-03-05T00:21:59.171Z,100486
2015-03-05T00:22:08.972Z,100486
2015-03-05T00:22:18.135Z,100486
2015-03-05T00:22:27.295Z,100483
2015-03-05T00:22:36.456Z,100483
2015-03-05T00:22:45.619Z,100489
2015-03-05T00:22:54.801Z,100492
2015-03-05T00:23:03.913Z,100486
2015-03-05T00:23:13.084Z,100492
2015-03-05T00:23:22.872Z,100477
2015-03-05T00:23:32.038Z,100483
2015-03-05T00:23:41.149Z,100475
2015-03-05T00:23:50.327Z,100489
2015-03-05T00:23:59.508Z,100492
2015-03-05T00:24:08.672Z,100492
2015-03-05T00:24:17.767Z,100483
2015-03-05T00:24:26.927Z,100492
2015-03-05T00:24:36.093Z,100494
2015-03-05T00:24:45.182Z,100492
2015-03-05T00:24:54.352Z,100489
2015-03-05T00:25:03.483Z,100492
2015-03-05T00:25:12.654Z,100500
2015-03-05T00:25:21.803Z,100486
2015-03-05T00:25:30.972Z,100498
2015-03-05T00:25:40.159Z,100497
2015-03-05T00:25:49.325Z,100492
2015-03-05T00:25:58.485Z,100495
2015-03-05T00:26:07.648Z,100498
2015-03-05T00:26:16.804Z,100489
2015-03-05T00:26:25.981Z,100492
2015-03-05T00:26:35.139Z,100498
2015-03-05T00:26:44.226Z,100498
2015-03-05T00:26:53.414Z,100486
2015-03-05T00:27:02.493Z,100486
2015-03-05T00:27:11.649Z,100504
2015-03-05T00:27:20.798Z,100492
2015-03-05T00:27:29.962Z,100495
2015-03-05T00:27:39.106Z,100495
2015-03-05T00:27:48.205Z,100498
2015-03-05T00:27:57.350Z,100498
2015-03-05T00:28:06.517Z,100492
2015-03-05T00:28:15.676Z,100495
2015-03-05T00:28:24.846Z,100492
2015-03-05T00:28:34.022Z,100492
2015-03-05T00:28:43.212Z,100495
2015-03-05T00:28:52.395Z,100497
2015-03-05T00:29:01.543Z,100500
2015-03-05T00:29:10.595Z,100498
2015-03-05T00:29:19.705Z,100492
2015-03-05T00:29:28.829Z,100500
2015-03-05T00:29:38.686Z,100503
2015-03-05T00:29:47.846Z,100495
2015-03-05T00:29:56.944Z,100500
2015-03-05T00:30:06.138Z,100500
2015-03-05T00:30:15.295Z,100498
2015-03-05T00:30:24.445Z,100497
2015-03-05T00:30:33.625Z,100506
2015-03-05T00:30:42.774Z,100495
2015-03-05T00:30:51.934Z,100503
2015-03-05T00:31:01.092Z,100506
2015-03-05T00:31:10.238Z,100492
2015-03-05T00:31:19.406Z,100498
2015-03-05T00:31:28.577Z,100501
2015-03-05T00:31:37.685Z,100501
2015-03-05T00:31:46.846Z,100498
2015-03-05T00:31:56.004Z,100500
2015-03-05T00:32:05.177Z,100503
2015-03-05T00:32:14.342Z,100498
2015-03-05T00:32:23.508Z,100509
2015-03-05T00:32:32.684Z,100509
2015-03-05T00:32:41.852Z,100506
2015-03-05T00:32:51.005Z,100506
2015-03-05T00:33:00.170Z,100506
2015-03-05T00:33:09.343Z,100503
2015-03-05T00:33:18.497Z,100503
2015-03-05T00:33:27.672Z,100500
2015-03-05T00:33:36.829Z,100500
2015-03-05T00:33:45.982Z,100497
2015-03-05T00:33:55.136Z,100503
2015-03-05T00:34:04.953Z,100503
2015-03-05T00:34:14.112Z,100503
2015-03-05T00:34:23.269Z,100509
2015-03-05T00:34:33.080Z,100509
2015-03-05T00:34:42.874Z,100515
2015-03-05T00:34:52.026Z,100521
2015-03-05T00:35:01.186Z,100515
2015-03-05T00:35:10.354Z,100503
2015-03-05T00:35:19.505Z,100506
2015-03-05T00:35:28.650Z,100509
2015-03-05T00:35:37.813Z,100506
2015-03-05T00:35:46.974Z,100509
2015-03-05T00:35:56.137Z,100509
2015-03-05T00:36:05.302Z,100498
2015-03-05T00:36:14.478Z,100512
2015-03-05T00:36:23.638Z,100503
2015-03-05T00:36:32.806Z,100509
2015-03-05T00:36:42.551Z,100504
2015-03-05T00:36:51.753Z,100515
2015-03-05T00:37:00.915Z,100509
2015-03-05T00:37:10.074Z,100515
2015-03-05T00:37:19.292Z,100509
2015-03-05T00:37:28.459Z,100504
2015-03-05T00:37:37.552Z,100512
2015-03-05T00:37:46.649Z,100504
2015-03-05T00:37:55.813Z,100498
2015-03-05T00:38:04.959Z,100501
2015-03-05T00:38:14.147Z,100518
2015-03-05T00:38:23.990Z,100504
2015-03-05T00:38:33.154Z,100506
2015-03-05T00:38:42.331Z,100512
2015-03-05T00:38:52.133Z,100518
2015-03-05T00:39:01.232Z,100515
2015-03-05T00:39:10.365Z,100509
2015-03-05T00:39:19.532Z,100509
2015-03-05T00:39:28.648Z,100521
2015-03-05T00:39:37.823Z,100509
2015-03-05T00:39:47.616Z,100512
2015-03-05T00:39:56.779Z,100504
2015-03-05T00:40:05.953Z,100512
2015-03-05T00:40:15.111Z,100512
2015-03-05T00:40:24.260Z,100512
2015-03-05T00:40:33.408Z,100512
2015-03-05T00:40:42.570Z,100512
2015-03-05T00:40:51.752Z,100515
2015-03-05T00:41:00.917Z,100507
2015-03-05T00:41:10.084Z,100507
2015-03-05T00:41:19.246Z,100521
2015-03-05T00:41:28.413Z,100510
2015-03-05T00:41:38.213Z,100512
2015-03-05T00:41:47.360Z,100513
2015-03-05T00:41:57.171Z,100507
2015-03-05T00:42:06.333Z,100507
2015-03-05T00:42:15.499Z,100518
2015-03-05T00:42:24.649Z,100515
2015-03-05T00:42:33.812Z,100512
2015-03-05T00:42:42.997Z,100507
2015-03-05T00:42:52.173Z,100510
2015-03-05T00:43:01.356Z,100512
2015-03-05T00:43:10.470Z,100518
2015-03-05T00:43:19.569Z,100524
2015-03-05T00:43:28.759Z,100512
2015-03-05T00:43:37.916Z,100518
2015-03-05T00:43:47.152Z,100512
2015-03-05T00:43:56.247Z,100509
2015-03-05T00:44:05.413Z,100509
2015-03-05T00:44:15.173Z,100521
2015-03-05T00:44:24.320Z,100512
2015-03-05T00:44:33.467Z,100521
2015-03-05T00:44:42.647Z,100509
2015-03-05T00:44:51.793Z,100512
2015-03-05T00:45:00.961Z,100518
2015-03-05T00:45:10.124Z,100521
2015-03-05T00:45:19.292Z,100512
2015-03-05T00:45:28.457Z,100521
2015-03-05T00:45:37.658Z,100512
2015-03-05T00:45:46.805Z,100518
2015-03-05T00:45:56.532Z,100515
2015-03-05T00:46:12.199Z,100512
2015-03-05T00:46:21.295Z,100518
2015-03-05T00:46:31.141Z,100518
2015-03-05T00:46:40.291Z,100515
2015-03-05T00:46:49.434Z,100521
2015-03-05T00:46:58.527Z,100518
2015-03-05T00:47:07.679Z,100524
2015-03-05T00:47:16.849Z,100518
2015-03-05T00:47:26.063Z,100518
2015-03-05T00:47:35.207Z,100518
2015-03-05T00:47:45.082Z,100515
2015-03-05T00:47:54.221Z,100518
2015-03-05T00:48:03.378Z,100524
2015-03-05T00:48:12.549Z,100527
2015-03-05T00:48:21.717Z,100524
2015-03-05T00:48:30.760Z,100527
2015-03-05T00:48:39.942Z,100516
2015-03-05T00:48:49.110Z,100513
2015-03-05T00:48:58.265Z,100518
2015-03-05T00:49:07.420Z,100515
2015-03-05T00:49:16.584Z,100521
2015-03-05T00:49:25.748Z,100518
2015-03-05T00:49:34.923Z,100521
2015-03-05T00:49:44.060Z,100527
2015-03-05T00:49:53.223Z,100521
2015-03-05T00:50:02.424Z,100533
2015-03-05T00:50:11.589Z,100530
2015-03-05T00:50:20.691Z,100530
2015-03-05T00:50:29.840Z,100518
2015-03-05T00:50:38.985Z,100518
2015-03-05T00:50:48.154Z,100524
2015-03-05T00:50:57.330Z,100521
2015-03-05T00:51:07.103Z,100521
2015-03-05T00:51:16.287Z,100524
2015-03-05T00:51:25.439Z,100524
2015-03-05T00:51:34.601Z,100518
2015-03-05T00:51:43.768Z,100518
2015-03-05T00:51:52.959Z,100518
2015-03-05T00:52:02.781Z,100521
2015-03-05T00:52:11.943Z,100518
2015-03-05T00:52:21.098Z,100530
2015-03-05T00:52:30.272Z,100521
2015-03-05T00:52:39.417Z,100518
2015-03-05T00:52:48.584Z,100510
2015-03-05T00:52:57.755Z,100516
2015-03-05T00:53:07.548Z,100521
2015-03-05T00:53:16.721Z,100510
2015-03-05T00:53:25.889Z,100519
2015-03-05T00:53:35.007Z,100518
2015-03-05T00:53:44.801Z,100521
2015-03-05T00:53:53.951Z,100527
2015-03-05T00:54:03.112Z,100513
2015-03-05T00:54:12.279Z,100521
2015-03-05T00:54:21.442Z,100521
2015-03-05T00:54:30.611Z,100533
2015-03-05T00:54:39.799Z,100521
2015-03-05T00:54:48.941Z,100524
2015-03-05T00:54:58.120Z,100513
2015-03-05T00:55:07.281Z,100524
2015-03-05T00:55:16.433Z,100516
2015-03-05T00:55:25.530Z,100521
2015-03-05T00:55:34.681Z,100527
2015-03-05T00:55:44.442Z,100536
2015-03-05T00:55:53.621Z,100521
2015-03-05T00:56:02.776Z,100521
2015-03-05T00:56:11.930Z,100521
2015-03-05T00:56:21.103Z,100527
2015-03-05T00:56:30.278Z,100533
2015-03-05T00:56:39.440Z,100527
2015-03-05T00:56:48.524Z,100516
2015-03-05T00:56:58.348Z,100521
2015-03-05T00:57:07.518Z,100521
2015-03-05T00:57:16.693Z,100524
2015-03-05T00:57:26.488Z,100524
2015-03-05T00:57:35.657Z,100524
2015-03-05T00:57:44.807Z,100524
2015-03-05T00:57:54.045Z,100524
2015-03-05T00:58:03.133Z,100527
2015-03-05T00:58:12.223Z,100521
2015-03-05T00:58:21.387Z,100521
2015-03-05T00:58:30.552Z,100518
2015-03-05T00:58:39.698Z,100527
2015-03-05T00:58:48.860Z,100533
2015-03-05T00:58:58.002Z,100524
2015-03-05T00:59:07.156Z,100533
2015-03-05T00:59:16.318Z,100527
2015-03-05T00:59:25.489Z,100536
2015-03-05T00:59:34.667Z,100533
2015-03-05T00:59:43.813Z,100521
2015-03-05T00:59:53.014Z,100527
2015-03-05T01:00:02.169Z,100530
2015-03-05T01:00:11.324Z,100524
2015-03-05T01:00:20.474Z,100524
2015-03-05T01:00:29.640Z,100521
2015-03-05T01:00:39.436Z,100513
2015-03-05T01:00:48.593Z,100519
2015-03-05T01:00:57.747Z,100516
2015-03-05T01:01:06.889Z,100516
2015-03-05T01:01:16.041Z,100521
2015-03-05T01:01:25.222Z,100527
2015-03-05T01:01:34.371Z,100524
2015-03-05T01:01:43.529Z,100527
2015-03-05T01:01:52.699Z,100524
2015-03-05T01:02:01.889Z,100530
2015-03-05T01:02:11.055Z,100524
2015-03-05T01:02:20.213Z,100530
2015-03-05T01:02:29.378Z,100530
2015-03-05T01:02:38.528Z,100527
2015-03-05T01:02:48.340Z,100524
2015-03-05T01:02:57.503Z,100533
2015-03-05T01:03:06.668Z,100527
2015-03-05T01:03:15.712Z,100524
2015-03-05T01:03:24.881Z,100524
2015-03-05T01:03:34.030Z,100524
2015-03-05T01:03:43.839Z,100527
2015-03-05T01:03:53.003Z,100527
2015-03-05T01:04:02.164Z,100530
2015-03-05T01:04:11.349Z,100533
2015-03-05T01:04:20.532Z,100527
2015-03-05T01:04:29.696Z,100530
2015-03-05T01:04:38.864Z,100524
2015-03-05T01:04:48.641Z,100527
2015-03-05T01:04:57.833Z,100530
2015-03-05T01:05:06.970Z,100521
2015-03-05T01:05:16.152Z,100527
2015-03-05T01:05:25.986Z,100530
2015-03-05T01:05:35.130Z,100518
2015-03-05T01:05:44.299Z,100518
2015-03-05T01:05:53.401Z,100530
2015-03-05T01:06:03.202Z,100524
2015-03-05T01:06:12.386Z,100524
2015-03-05T01:06:21.538Z,100530
2015-03-05T01:06:30.712Z,100527
2015-03-05T01:06:39.864Z,100527
2015-03-05T01:06:49.012Z,100533
2015-03-05T01:06:58.171Z,100527
2015-03-05T01:07:07.322Z,100536
2015-03-05T01:07:16.503Z,100521
2015-03-05T01:07:26.303Z,100533
2015-03-05T01:07:35.452Z,100527
2015-03-05T01:07:45.282Z,100527
2015-03-05T01:07:54.465Z,100527
2015-03-05T01:08:04.308Z,100536
2015-03-05T01:08:13.455Z,100530
2015-03-05T01:08:22.606Z,100530
2015-03-05T01:08:31.765Z,100530
2015-03-05T01:08:40.866Z,100527
2015-03-05T01:08:50.011Z,100530
2015-03-05T01:08:59.177Z,100536
2015-03-05T01:09:08.347Z,100530
2015-03-05T01:09:18.139Z,100524
2015-03-05T01:09:27.306Z,100536
2015-03-05T01:09:36.470Z,100533
2015-03-05T01:09:45.647Z,100518
2015-03-05T01:09:54.835Z,100524
2015-03-05T01:10:04.666Z,100530
2015-03-05T01:10:13.849Z,100533
2015-03-05T01:10:23.033Z,100527
2015-03-05T01:10:32.191Z,100527
2015-03-05T01:10:41.289Z,100524
2015-03-05T01:10:50.453Z,100521
2015-03-05T01:10:59.558Z,100530
2015-03-05T01:11:08.712Z,100527
2015-03-05T01:11:17.794Z,100527
2015-03-05T01:11:26.919Z,100542
2015-03-05T01:11:36.019Z,100524
2015-03-05T01:11:45.183Z,100530
2015-03-05T01:11:54.349Z,100524
2015-03-05T01:12:03.478Z,100536
2015-03-05T01:12:12.577Z,100524
2015-03-05T01:12:21.760Z,100533
2015-03-05T01:12:30.929Z,100530
2015-03-05T01:12:40.123Z,100533
2015-03-05T01:12:49.291Z,100530
2015-03-05T01:12:59.088Z,100536
2015-03-05T01:13:08.250Z,100530
2015-03-05T01:13:17.429Z,100539
2015-03-05T01:13:27.088Z,100530
2015-03-05T01:13:36.246Z,100530
2015-03-05T01:13:45.386Z,100533
2015-03-05T01:13:55.183Z,100530
2015-03-05T01:14:04.345Z,100527
2015-03-05T01:14:13.506Z,100524
2015-03-05T01:14:22.677Z,100524
2015-03-05T01:14:31.833Z,100530
2015-03-05T01:14:40.990Z,100524
2015-03-05T01:14:50.155Z,100533
2015-03-05T01:14:59.319Z,100527
2015-03-05T01:15:08.431Z,100524
2015-03-05T01:15:17.576Z,100524
2015-03-05T01:15:26.749Z,100530
2015-03-05T01:15:35.910Z,100533
2015-03-05T01:15:45.073Z,100530
2015-03-05T01:15:54.239Z,100524
2015-03-05T01:16:03.438Z,100527
2015-03-05T01:16:12.603Z,100533
2015-03-05T01:16:21.750Z,100539
2015-03-05T01:16:31.483Z,100545
2015-03-05T01:16:40.625Z,100524
2015-03-05T01:16:49.786Z,100533
2015-03-05T01:16:59.566Z,100527
2015-03-05T01:17:08.761Z,100530
2015-03-05T01:17:17.849Z,100533
2015-03-05T01:17:26.956Z,100539
2015-03-05T01:17:36.129Z,100530
2015-03-05T01:17:45.309Z,100542
2015-03-05T01:17:54.460Z,100539
2015-03-05T01:18:03.618Z,100539
2015-03-05T01:18:12.767Z,100536
2015-03-05T01:18:21.913Z,100536
2015-03-05T01:18:31.062Z,100533
2015-03-05T01:18:40.238Z,100536
2015-03-05T01:18:49.385Z,100545
2015-03-05T01:18:58.490Z,100539
2015-03-05T01:19:07.655Z,100527
2015-03-05T01:19:16.752Z,100533
2015-03-05T01:19:25.911Z,100536
2015-03-05T01:19:35.081Z,100533
2015-03-05T01:19:44.250Z,100536
2015-03-05T01:19:53.408Z,100524
2015-03-05T01:20:02.513Z,100539
2015-03-05T01:20:11.670Z,100539
2015-03-05T01:20:20.836Z,100544
2015-03-05T01:20:30.002Z,100533
2015-03-05T01:20:39.182Z,100533
2015-03-05T01:20:48.378Z,100544
2015-03-05T01:20:57.471Z,100533
2015-03-05T01:21:06.621Z,100541
2015-03-05T01:21:15.782Z,100547
2015-03-05T01:21:24.940Z,100536
2015-03-05T01:21:34.100Z,100544
2015-03-05T01:21:43.268Z,100541
2015-03-05T01:21:52.418Z,100536
2015-03-05T01:22:01.567Z,100541
2015-03-05T01:22:10.713Z,100544
2015-03-05T01:22:19.855Z,100538
2015-03-05T01:22:28.943Z,100547
2015-03-05T01:22:38.106Z,100536
2015-03-05T01:22:47.903Z,100547
2015-03-05T01:22:57.066Z,100539
2015-03-05T01:23:06.226Z,100538
2015-03-05T01:23:15.377Z,100541
2015-03-05T01:23:24.524Z,100539
2015-03-05T01:23:33.672Z,100539
2015-03-05T01:23:42.841Z,100547
2015-03-05T01:23:52.010Z,100530
2015-03-05T01:24:01.161Z,100542
2015-03-05T01:24:10.352Z,100533
2015-03-05T01:24:19.501Z,100542
2015-03-05T01:24:28.647Z,100539
2015-03-05T01:24:37.811Z,100544
2015-03-05T01:24:46.925Z,100539
2015-03-05T01:24:56.085Z,100539
2015-03-05T01:25:05.253Z,100533
2015-03-05T01:25:14.396Z,100536
2015-03-05T01:25:23.552Z,100539
2015-03-05T01:25:32.695Z,100533
2015-03-05T01:25:41.845Z,100533
2015-03-05T01:25:51.008Z,100536
2015-03-05T01:26:00.173Z,100539
2015-03-05T01:26:09.337Z,100536
2015-03-05T01:26:18.486Z,100545
2015-03-05T01:26:27.634Z,100530
2015-03-05T01:26:36.798Z,100536
2015-03-05T01:26:45.963Z,100530
2015-03-05T01:26:55.124Z,100542
2015-03-05T01:27:04.275Z,100533
2015-03-05T01:27:13.455Z,100539
2015-03-05T01:27:23.188Z,100536
2015-03-05T01:27:32.358Z,100530
2015-03-05T01:27:41.402Z,100542
2015-03-05T01:27:50.563Z,100533
2015-03-05T01:27:59.722Z,100533
2015-03-05T01:28:08.870Z,100533
2015-03-05T01:28:18.021Z,100533
2015-03-05T01:28:27.175Z,100539
2015-03-05T01:28:36.329Z,100530
2015-03-05T01:28:45.478Z,100536
2015-03-05T01:28:54.660Z,100536
2015-03-05T01:29:03.747Z,100539
2015-03-05T01:29:12.895Z,100542
2015-03-05T01:29:22.044Z,100539
2015-03-05T01:29:31.211Z,100536
2015-03-05T01:29:40.369Z,100548
2015-03-05T01:29:49.524Z,100536
2015-03-05T01:29:58.629Z,100530
2015-03-05T01:30:07.808Z,100533
2015-03-05T01:30:16.911Z,100539
2015-03-05T01:30:26.098Z,100530
2015-03-05T01:30:35.258Z,100536
2015-03-05T01:30:44.419Z,100536
2015-03-05T01:30:53.513Z,100530
2015-03-05T01:31:02.666Z,100539
2015-03-05T01:31:11.812Z,100527
2015-03-05T01:31:20.978Z,100536
2015-03-05T01:31:30.154Z,100539
2015-03-05T01:31:39.328Z,100536
2015-03-05T01:31:49.151Z,100533
2015-03-05T01:31:58.230Z,100542
2015-03-05T01:32:07.425Z,100539
2015-03-05T01:32:16.543Z,100533
2015-03-05T01:32:25.641Z,100530
2015-03-05T01:32:34.799Z,100539
2015-03-05T01:32:49.407Z,100536
2015-03-05T01:32:58.567Z,100542
2015-03-05T01:33:08.153Z,100536
2015-03-05T01:33:17.313Z,100548
2015-03-05T01:33:26.472Z,100545
2015-03-05T01:33:35.630Z,100542
2015-03-05T01:33:44.811Z,100548
2015-03-05T01:33:54.611Z,100527
2015-03-05T01:34:03.769Z,100539
2015-03-05T01:34:12.926Z,100533
2015-03-05T01:34:22.086Z,100542
2015-03-05T01:34:31.241Z,100542
2015-03-05T01:34:40.417Z,100539
2015-03-05T01:34:50.204Z,100542
2015-03-05T01:34:59.298Z,100542
2015-03-05T01:35:08.460Z,100548
2015-03-05T01:35:17.618Z,100539
2015-03-05T01:35:26.784Z,100539
2015-03-05T01:35:35.999Z,100539
2015-03-05T01:35:45.173Z,100539
2015-03-05T01:35:54.329Z,100539
2015-03-05T01:36:03.475Z,100536
2015-03-05T01:36:12.567Z,100530
2015-03-05T01:36:21.718Z,100530
2015-03-05T01:36:30.869Z,100539
2015-03-05T01:36:40.027Z,100539
2015-03-05T01:36:49.166Z,100533
2015-03-05T01:36:58.315Z,100545
2015-03-05T01:37:07.470Z,100527
2015-03-05T01:37:16.633Z,100530
2015-03-05T01:37:25.740Z,100536
2015-03-05T01:37:34.843Z,100539
2015-03-05T01:37:43.998Z,100542
2015-03-05T01:37:53.163Z,100539
2015-03-05T01:38:02.311Z,100539
2015-03-05T01:38:11.464Z,100542
2015-03-05T01:38:20.630Z,100539
2015-03-05T01:38:29.819Z,100539
2015-03-05T01:38:38.988Z,100536
2015-03-05T01:38:48.136Z,100542
2015-03-05T01:38:57.227Z,100548
2015-03-05T01:39:06.396Z,100536
2015-03-05T01:39:15.559Z,100536
2015-03-05T01:39:24.708Z,100536
2015-03-05T01:39:33.827Z,100545
2015-03-05T01:39:42.977Z,100536
2015-03-05T01:39:52.085Z,100545
2015-03-05T01:40:01.238Z,100536
2015-03-05T01:40:10.328Z,100545
2015-03-05T01:40:19.485Z,100536
2015-03-05T01:40:28.665Z,100542
2015-03-05T01:40:37.825Z,100536
2015-03-05T01:40:46.990Z,100548
2015-03-05T01:40:56.096Z,100539
2015-03-05T01:41:05.241Z,100542
2015-03-05T01:41:14.408Z,100533
2015-03-05T01:41:23.558Z,100533
2015-03-05T01:41:32.594Z,100539
2015-03-05T01:41:41.640Z,100542
2015-03-05T01:41:50.735Z,100548
2015-03-05T01:42:00.025Z,100545
2015-03-05T01:42:09.162Z,100542
2015-03-05T01:42:18.330Z,100551
2015-03-05T01:42:27.479Z,100536
2015-03-05T01:42:36.625Z,100533
2015-03-05T01:42:45.797Z,100545
2015-03-05T01:42:54.937Z,100545
2015-03-05T01:43:04.101Z,100548
2015-03-05T01:43:13.248Z,100548
2015-03-05T01:43:22.442Z,100554
2015-03-05T01:43:31.597Z,100548
2015-03-05T01:43:40.751Z,100545
2015-03-05T01:43:49.896Z,100542
2015-03-05T01:43:59.037Z,100548
2015-03-05T01:44:08.206Z,100536
2015-03-05T01:44:17.336Z,100542
2015-03-05T01:44:26.501Z,100533
2015-03-05T01:44:35.663Z,100539
2015-03-05T01:44:44.818Z,100536
2015-03-05T01:44:53.913Z,100539
2015-03-05T01:45:03.072Z,100542
2015-03-05T01:45:12.238Z,100545
2015-03-05T01:45:21.349Z,100554
2015-03-05T01:45:30.512Z,100545
2015-03-05T01:45:39.680Z,100533
2015-03-05T01:45:48.844Z,100545
2015-03-05T01:45:58.005Z,100539
2015-03-05T01:46:07.179Z,100536
2015-03-05T01:46:16.391Z,100527
2015-03-05T01:46:25.490Z,100545
2015-03-05T01:46:34.649Z,100536
2015-03-05T01:46:43.821Z,100533
2015-03-05T01:46:53.562Z,100545
2015-03-05T01:47:02.762Z,100548
2015-03-05T01:47:11.918Z,100539
2015-03-05T01:47:21.070Z,100542
2015-03-05T01:47:30.224Z,100527
2015-03-05T01:47:39.385Z,100539
2015-03-05T01:47:48.551Z,100530
2015-03-05T01:47:57.713Z,100542
2015-03-05T01:48:06.864Z,100545
2015-03-05T01:48:16.029Z,100536
2015-03-05T01:48:25.178Z,100536
2015-03-05T01:48:34.326Z,100539
2015-03-05T01:48:43.489Z,100539
2015-03-05T01:48:52.642Z,100536
2015-03-05T01:49:01.733Z,100545
2015-03-05T01:49:10.830Z,100551
2015-03-05T01:49:19.980Z,100542
2015-03-05T01:49:29.131Z,100545
2015-03-05T01:49:38.289Z,100530
2015-03-05T01:49:47.454Z,100536
2015-03-05T01:49:56.606Z,100539
2015-03-05T01:50:05.781Z,100533
2015-03-05T01:50:14.964Z,100542
2015-03-05T01:50:24.777Z,100524
2015-03-05T01:50:34.573Z,100542
2015-03-05T01:50:43.670Z,100548
2015-03-05T01:50:52.817Z,100536
2015-03-05T01:51:01.985Z,100536
2015-03-05T01:51:11.162Z,100530
2015-03-05T01:51:20.334Z,100539
2015-03-05T01:51:29.482Z,100542
2015-03-05T01:51:38.629Z,100542
2015-03-05T01:51:48.370Z,100545
2015-03-05T01:51:57.529Z,100536
2015-03-05T01:52:06.650Z,100536
2015-03-05T01:52:15.862Z,100545
2015-03-05T01:52:25.020Z,100545
2015-03-05T01:52:34.170Z,100542
2015-03-05T01:52:43.323Z,100548
2015-03-05T01:52:53.053Z,100551
2015-03-05T01:53:02.201Z,100557
2015-03-05T01:53:11.348Z,100545
2015-03-05T01:53:20.514Z,100551
2015-03-05T01:53:29.682Z,100548
2015-03-05T01:53:38.826Z,100539
2015-03-05T01:53:47.975Z,100542
2015-03-05T01:53:57.088Z,100545
2015-03-05T01:54:06.252Z,100542
2015-03-05T01:54:15.419Z,100539
2015-03-05T01:54:25.229Z,100548
2015-03-05T01:54:34.411Z,100536
2015-03-05T01:54:43.562Z,100554
2015-03-05T01:54:52.711Z,100557
2015-03-05T01:55:01.890Z,100539